Time;durP1;ratioP1;P1;durP2;ratioP2;P2;SDS_P1;SDS_P2;PMS_P1;PMS_P2;Temp;Humidity;BMP_temperature;BMP_pressure;BME280_temperature;BME280_humidity;BME280_pressure;Samples;Min_cycle;Max_cycle;Signal;HPM_P1;HPM_P2
2023/05/07 00:01:19;;;;;;;9.98;1.83;;;;;;;22.44;45.98;101995.38;20928716;28;20034;-68
2023/05/07 00:11:20;;;;;;;4.80;1.42;;;;;;;22.47;46.11;102013.53;20907611;28;20084;-68
2023/05/07 00:21:22;;;;;;;2.28;1.23;;;;;;;22.43;46.21;102012.38;20928624;28;20076;-68
2023/05/07 00:31:23;;;;;;;4.22;1.52;;;;;;;21.86;45.81;101926.53;20947569;28;20496;-68
2023/05/07 00:41:24;;;;;;;6.80;1.75;;;;;;;22.45;45.99;102010.16;20920420;28;20041;-69
2023/05/07 00:51:27;;;;;;;2.00;1.10;;;;;;;21.92;46.04;101929.06;20956638;28;20057;-67
2023/05/07 01:01:28;;;;;;;5.82;1.20;;;;;;;22.45;45.93;102021.31;21009547;28;20040;-67
2023/05/07 01:11:33;;;;;;;6.65;1.20;;;;;;;22.46;46.00;102023.00;21037670;28;20079;-66
2023/05/07 01:21:37;;;;;;;2.22;0.90;;;;;;;22.50;45.77;102015.81;20926158;28;20477;-68
2023/05/07 01:31:41;;;;;;;4.57;1.25;;;;;;;22.51;46.04;102011.91;21039361;28;20480;-68
2023/05/07 01:41:43;;;;;;;7.05;1.65;;;;;;;22.55;45.76;102027.00;20986916;28;20062;-67
2023/05/07 01:51:45;;;;;;;3.20;1.58;;;;;;;22.49;45.81;101997.34;20978563;28;20036;-67
2023/05/07 02:01:47;;;;;;;6.53;1.45;;;;;;;22.48;46.18;102002.09;20971992;28;20116;-69
2023/05/07 02:11:48;;;;;;;8.93;1.50;;;;;;;21.92;45.76;101897.59;20958561;28;20045;-69
2023/05/07 02:21:51;;;;;;;4.60;1.50;;;;;;;22.62;46.02;102008.06;20993990;28;20040;-69
2023/05/07 02:31:55;;;;;;;6.60;1.50;;;;;;;22.62;46.25;102008.06;20945446;28;20476;-68
2023/05/07 02:41:59;;;;;;;6.65;1.65;;;;;;;22.58;46.11;102006.91;20937271;28;20044;-68
2023/05/07 02:52:01;;;;;;;6.32;1.48;;;;;;;22.68;46.24;102025.69;20949024;28;20365;-68
2023/05/07 03:02:02;;;;;;;13.32;1.70;;;;;;;22.68;46.15;102018.19;20937802;28;20041;-67
2023/05/07 03:12:03;;;;;;;9.10;1.92;;;;;;;22.61;45.71;102011.97;20984351;28;20048;-67
2023/05/07 03:22:05;;;;;;;19.42;2.50;;;;;;;22.68;45.79;102012.59;20967254;28;20415;-68
2023/05/07 03:32:06;;;;;;;12.40;2.45;;;;;;;22.47;46.06;101989.25;20947187;28;20566;-68
2023/05/07 03:42:10;;;;;;;16.98;2.92;;;;;;;22.72;45.86;102030.47;20934716;28;20024;-68
2023/05/07 03:52:12;;;;;;;11.07;2.33;;;;;;;22.73;45.52;102037.75;20974277;28;20101;-68
2023/05/07 04:02:13;;;;;;;8.98;2.20;;;;;;;22.67;45.85;102024.84;21001239;28;20471;-67
2023/05/07 04:12:15;;;;;;;9.88;1.73;;;;;;;22.71;45.75;102023.22;20928663;28;20553;-67
2023/05/07 04:22:19;;;;;;;3.55;1.33;;;;;;;22.67;45.55;102019.25;20999501;28;20036;-68
2023/05/07 04:32:24;;;;;;;5.47;1.50;;;;;;;22.72;45.43;102013.72;20989924;28;20044;-68
2023/05/07 04:42:26;;;;;;;8.40;2.38;;;;;;;22.65;45.77;101998.34;20950698;28;20404;-67
2023/05/07 04:52:27;;;;;;;4.32;1.60;;;;;;;22.68;45.53;101993.06;20995674;28;20404;-68
2023/05/07 05:02:31;;;;;;;4.65;1.40;;;;;;;22.67;45.72;101987.75;20990303;28;20029;-68
2023/05/07 05:12:39;;;;;;;6.10;1.73;;;;;;;22.52;45.51;101961.41;20979777;28;20369;-67
2023/05/07 05:22:41;;;;;;;6.60;2.25;;;;;;;22.70;45.53;101982.47;20968181;28;20133;-67
2023/05/07 05:32:46;;;;;;;3.00;1.55;;;;;;;22.69;45.46;101986.38;20975726;28;20429;-67
2023/05/07 05:42:47;;;;;;;3.20;1.27;;;;;;;22.69;45.73;101974.38;20967949;28;20443;-68
2023/05/07 05:52:48;;;;;;;5.32;1.85;;;;;;;22.69;45.73;101964.06;21000483;28;20078;-68
2023/05/07 06:02:50;;;;;;;4.03;1.30;;;;;;;22.66;45.80;101956.22;20984745;28;20037;-68
2023/05/07 06:12:51;;;;;;;2.30;1.20;;;;;;;22.67;45.85;101960.66;20954675;28;20094;-68
2023/05/07 06:22:52;;;;;;;3.45;1.10;;;;;;;22.57;45.74;101941.09;20996386;28;20483;-69
2023/05/07 06:32:54;;;;;;;3.60;1.40;;;;;;;22.58;45.89;101939.97;20994764;28;20514;-68
2023/05/07 06:42:55;;;;;;;4.45;1.20;;;;;;;22.63;45.74;101955.91;20932585;28;20045;-68
2023/05/07 06:52:56;;;;;;;2.20;1.27;;;;;;;22.62;45.96;101945.84;20911361;28;20400;-68
2023/05/07 07:03:00;;;;;;;2.67;1.10;;;;;;;22.62;45.84;101943.91;20973138;28;20411;-68
2023/05/07 07:13:05;;;;;;;3.92;1.45;;;;;;;22.61;45.95;101960.91;20979956;28;20511;-68
2023/05/07 07:23:06;;;;;;;2.30;1.10;;;;;;;22.61;45.81;101953.38;20969665;28;20102;-68
2023/05/07 07:33:08;;;;;;;4.63;1.50;;;;;;;22.50;45.87;101932.13;20995237;28;20086;-68
2023/05/07 07:43:09;;;;;;;2.17;1.67;;;;;;;22.57;45.74;101943.88;20946727;28;20385;-69
2023/05/07 07:53:10;;;;;;;2.05;1.15;;;;;;;22.57;45.68;101950.28;21006205;28;20055;-68
2023/05/07 08:03:12;;;;;;;2.53;1.17;;;;;;;22.55;45.65;101940.53;20988624;28;20048;-69
2023/05/07 08:13:14;;;;;;;3.65;1.38;;;;;;;22.41;45.81;101914.19;20968548;28;20153;-68
2023/05/07 08:23:15;;;;;;;4.85;1.75;;;;;;;22.50;46.04;101935.75;20954522;28;20076;-68
2023/05/07 08:33:16;;;;;;;3.20;1.15;;;;;;;22.49;45.90;101947.16;20997320;28;20476;-68
2023/05/07 08:43:19;;;;;;;1.60;1.17;;;;;;;22.48;45.95;101937.09;20989842;28;20044;-68
2023/05/07 08:53:21;;;;;;;3.25;1.65;;;;;;;22.46;46.05;101930.97;20977135;28;20566;-69
2023/05/07 09:03:22;;;;;;;2.75;1.52;;;;;;;22.45;46.05;101918.09;21001841;28;20060;-69
2023/05/07 09:13:23;;;;;;;2.50;1.40;;;;;;;22.45;46.17;101918.09;20960518;28;20446;-69
2023/05/07 09:23:25;;;;;;;2.90;1.27;;;;;;;22.46;45.83;101917.03;20916867;28;20439;-69
2023/05/07 09:33:28;;;;;;;1.67;1.23;;;;;;;22.43;45.76;101895.25;20986423;28;20553;-67
2023/05/07 09:43:36;;;;;;;1.48;1.30;;;;;;;22.41;45.85;101900.25;20990776;28;20442;-68
2023/05/07 09:53:39;;;;;;;2.17;1.60;;;;;;;22.43;45.66;101893.28;20967009;28;20052;-66
2023/05/07 10:03:44;;;;;;;2.13;1.40;;;;;;;22.41;45.88;101897.47;20983302;28;20040;-67
2023/05/07 10:13:46;;;;;;;1.88;1.40;;;;;;;22.29;45.60;101880.91;20999837;28;20499;-69
2023/05/07 10:24:02;;;;;;;1.58;1.38;;;;;;;22.40;45.72;101888.22;20973591;28;20040;-68
2023/05/07 10:34:11;;;;;;;2.10;1.60;;;;;;;22.37;45.61;101899.13;20989637;28;20561;-68
2023/05/07 10:44:29;;;;;;;1.40;1.30;;;;;;;22.41;45.18;101905.84;20979552;28;20545;-68
2023/05/07 10:54:30;;;;;;;1.83;1.40;;;;;;;22.42;44.81;101907.50;20993154;28;20114;-67
2023/05/07 11:04:34;;;;;;;1.45;1.30;;;;;;;22.44;43.91;101908.06;20992760;28;20045;-67
2023/05/07 11:14:44;;;;;;;2.00;1.73;;;;;;;22.42;43.76;101907.50;20933985;28;20075;-67
2023/05/07 11:24:46;;;;;;;1.90;1.65;;;;;;;22.26;43.83;101859.97;20910618;28;20558;-69
2023/05/07 11:34:54;;;;;;;2.55;1.50;;;;;;;22.25;43.71;101847.16;20909727;28;20067;-67
2023/05/07 11:44:56;;;;;;;1.85;1.52;;;;;;;22.41;44.12;101869.59;20980383;28;20045;-67
2023/05/07 11:55:00;;;;;;;1.40;1.30;;;;;;;22.41;44.20;101847.28;20985717;28;20098;-68
2023/05/07 12:05:03;;;;;;;3.47;1.85;;;;;;;22.25;44.49;101798.91;20986139;28;20047;-68
2023/05/07 12:15:05;;;;;;;1.40;1.30;;;;;;;22.24;44.55;101806.44;21002483;28;20044;-68
2023/05/07 12:25:07;;;;;;;7.55;1.95;;;;;;;22.43;45.05;101850.63;20988057;28;20074;-68
2023/05/07 12:35:09;;;;;;;8.85;2.08;;;;;;;22.15;44.94;101791.34;20984727;28;20045;-69
2023/05/07 12:45:16;;;;;;;9.98;2.22;;;;;;;22.46;44.72;101844.50;20987795;28;20404;-68
2023/05/07 12:55:17;;;;;;;5.97;2.05;;;;;;;22.51;44.50;101822.22;21020620;28;20078;-68
2023/05/07 13:05:21;;;;;;;8.77;2.17;;;;;;;22.54;44.56;101816.09;21084753;28;20040;-68
2023/05/07 13:15:23;;;;;;;8.85;2.22;;;;;;;22.54;44.53;101799.34;21084772;28;20047;-68
2023/05/07 13:25:27;;;;;;;9.40;2.15;;;;;;;22.40;44.75;101775.84;21004885;28;20400;-68
2023/05/07 13:35:28;;;;;;;3.17;1.95;;;;;;;22.49;44.54;101754.69;20916475;28;20041;-68
2023/05/07 13:45:30;;;;;;;4.13;1.90;;;;;;;22.37;45.00;101746.56;20915943;28;20037;-69
2023/05/07 13:55:41;;;;;;;8.35;1.80;;;;;;;22.46;45.08;101727.38;20941092;28;20412;-68
2023/05/07 14:05:51;;;;;;;7.53;2.08;;;;;;;22.52;44.82;101738.25;20991445;28;20074;-68
2023/05/07 14:15:52;;;;;;;6.78;2.00;;;;;;;22.29;44.89;101692.16;20996534;28;20160;-68
2023/05/07 14:25:54;;;;;;;5.57;2.05;;;;;;;22.54;44.95;101724.91;20995435;28;20102;-68
2023/05/07 14:35:55;;;;;;;8.18;1.70;;;;;;;22.31;44.85;101684.38;20988360;28;20081;-69
2023/05/07 14:45:57;;;;;;;3.55;1.80;;;;;;;22.57;44.77;101701.19;20994379;28;20475;-68
2023/05/07 14:55:59;;;;;;;5.03;1.70;;;;;;;22.40;44.82;101661.50;20993696;28;20055;-68
2023/05/07 15:06:05;;;;;;;2.33;1.77;;;;;;;22.42;44.68;101649.00;20992384;28;20553;-68
2023/05/07 15:16:06;;;;;;;3.13;1.60;;;;;;;22.48;44.89;101633.09;20993052;28;20029;-69
2023/05/07 15:26:08;;;;;;;5.50;1.80;;;;;;;22.62;44.60;101637.03;20990346;28;20070;-68
2023/05/07 15:36:09;;;;;;;5.32;1.40;;;;;;;22.64;44.42;101625.63;20987661;28;20041;-69
2023/05/07 15:46:10;;;;;;;2.75;1.75;;;;;;;22.64;44.86;101608.88;20911291;28;20102;-68
2023/05/07 15:56:12;;;;;;;4.72;1.50;;;;;;;22.68;44.46;101605.25;20924638;28;20041;-68
2023/05/07 16:06:13;;;;;;;3.65;1.70;;;;;;;22.69;44.61;101601.34;20923663;28;20052;-69
2023/05/07 16:16:15;;;;;;;3.47;1.35;;;;;;;22.69;44.57;101569.84;20923285;28;20079;-69
2023/05/07 16:26:16;;;;;;;3.00;1.52;;;;;;;22.48;44.64;101519.59;20922428;28;20041;-68
2023/05/07 16:36:18;;;;;;;4.10;1.67;;;;;;;22.51;44.28;101504.25;20921815;28;20450;-68
2023/05/07 16:46:23;;;;;;;1.55;1.45;;;;;;;22.74;44.33;101520.44;20996908;28;20048;-68
2023/05/07 16:56:25;;;;;;;4.60;1.50;;;;;;;22.65;44.38;101480.28;20932722;28;20045;-68
2023/05/07 17:06:26;;;;;;;2.65;1.73;;;;;;;22.74;44.28;101474.97;20918847;28;20079;-68
2023/05/07 17:16:27;;;;;;;2.10;1.45;;;;;;;22.81;44.21;101467.97;20918589;28;20037;-68
2023/05/07 17:26:30;;;;;;;2.60;1.30;;;;;;;22.78;44.43;101432.28;20949596;28;20049;-68
2023/05/07 17:36:31;;;;;;;1.77;1.63;;;;;;;22.81;44.16;101412.16;20999815;28;20044;-68
2023/05/07 17:46:33;;;;;;;5.72;1.80;;;;;;;22.66;44.41;101370.34;20996745;28;20102;-68
2023/05/07 17:56:42;;;;;;;2.72;1.60;;;;;;;22.58;44.08;101338.28;20997513;28;20101;-68
2023/05/07 18:06:43;;;;;;;1.65;1.30;;;;;;;22.89;44.00;101365.28;20996708;28;20048;-68
2023/05/07 18:16:45;;;;;;;2.45;1.30;;;;;;;22.88;44.25;101356.06;20996298;28;20040;-68
2023/05/07 18:26:47;;;;;;;1.35;1.23;;;;;;;22.90;44.21;101339.06;20995564;28;20067;-68
2023/05/07 18:36:49;;;;;;;3.05;1.83;;;;;;;22.91;44.17;101329.56;20989380;28;20043;-69
2023/05/07 18:46:50;;;;;;;1.40;1.30;;;;;;;22.91;44.16;101304.44;20993376;28;20048;-69
2023/05/07 18:56:52;;;;;;;2.33;1.55;;;;;;;22.69;43.93;101254.59;20993888;28;20079;-69
2023/05/07 19:06:53;;;;;;;1.35;1.25;;;;;;;22.94;44.38;101275.97;20987855;28;20049;-69
2023/05/07 19:17:00;;;;;;;2.08;1.60;;;;;;;22.93;44.45;101246.41;20987227;28;20102;-69
2023/05/07 19:27:11;;;;;;;1.30;1.10;;;;;;;22.83;44.26;101200.66;21004854;28;20037;-69
2023/05/07 19:37:15;;;;;;;1.50;1.40;;;;;;;23.02;44.05;101188.88;21009111;28;20036;-69
2023/05/07 19:47:16;;;;;;;1.88;1.50;;;;;;;22.99;44.28;101175.47;21008351;28;20040;-69
2023/05/07 19:57:18;;;;;;;1.50;1.40;;;;;;;22.94;44.17;101142.84;21007338;28;20044;-69
2023/05/07 20:07:22;;;;;;;1.48;1.38;;;;;;;23.05;44.09;101143.63;21007008;28;20074;-69
2023/05/07 20:17:26;;;;;;;1.60;1.50;;;;;;;23.08;44.23;101118.75;21005770;28;20032;-69
2023/05/07 20:27:27;;;;;;;1.98;1.60;;;;;;;22.85;43.93;101083.19;21005068;28;20033;-69
2023/05/07 20:37:30;;;;;;;1.02;1.02;;;;;;;23.08;44.21;101101.16;21004355;28;20045;-69
2023/05/07 20:47:32;;;;;;;1.30;1.20;;;;;;;23.03;44.25;101078.88;21003842;28;20408;-69
2023/05/07 20:57:33;;;;;;;1.88;1.30;;;;;;;23.13;44.23;101075.16;21002826;28;20098;-69
2023/05/07 21:07:35;;;;;;;1.00;1.00;;;;;;;23.07;44.24;101071.59;21001973;28;20109;-69
2023/05/07 21:17:36;;;;;;;1.50;1.40;;;;;;;23.01;44.33;101050.44;21001598;28;20048;-69
2023/05/07 21:27:40;;;;;;;1.85;1.50;;;;;;;23.10;44.33;101054.28;21001130;28;20093;-69
2023/05/07 21:37:41;;;;;;;1.55;1.30;;;;;;;23.13;44.27;101058.41;20999839;28;20067;-69
2023/05/07 21:47:43;;;;;;;1.60;1.38;;;;;;;23.16;44.16;101052.25;21006560;28;20036;-69
2023/05/07 21:57:44;;;;;;;4.97;1.58;;;;;;;23.03;44.47;101034.22;20930018;28;20048;-68
2023/05/07 22:07:45;;;;;;;5.13;1.45;;;;;;;23.04;44.63;101033.09;20965073;28;20037;-68
2023/05/07 22:17:49;;;;;;;2.42;1.75;;;;;;;23.08;44.84;101020.22;20979675;28;20102;-68
2023/05/07 22:27:53;;;;;;;4.40;1.80;;;;;;;23.07;44.91;101011.03;20994035;28;20048;-68
2023/05/07 22:37:55;;;;;;;4.00;1.60;;;;;;;22.94;45.30;100977.38;20988447;28;20377;-72
2023/05/07 22:47:59;;;;;;;4.93;1.70;;;;;;;23.16;45.09;101008.44;20960558;28;20044;-72
2023/05/07 22:58:00;;;;;;;4.03;1.90;;;;;;;23.19;44.98;101005.06;20943086;28;20041;-72
2023/05/07 23:08:03;;;;;;;8.85;2.05;;;;;;;23.21;44.99;101004.75;20944731;28;20036;-72
2023/05/07 23:18:07;;;;;;;4.07;1.75;;;;;;;23.22;44.98;100990.47;20987332;28;20045;-72
2023/05/07 23:28:08;;;;;;;2.65;1.70;;;;;;;23.10;44.99;100956.56;20925831;28;20045;-72
2023/05/07 23:38:12;;;;;;;3.53;1.65;;;;;;;23.22;45.14;100990.47;20977782;28;20059;-72
2023/05/07 23:48:13;;;;;;;4.15;1.77;;;;;;;22.39;45.20;100848.44;20963866;28;20049;-72
2023/05/07 23:58:15;;;;;;;3.38;1.60;;;;;;;23.27;45.16;100968.09;20880659;28;20686;-71
